sensor_id;sensor_type;location;lat;lon;timestamp;P1;durP1;ratioP1;P2;durP2;ratioP2
71955;SDS011;59829;50.562;6.258;2022-11-03T00:09:48;1.77;;;0.50;;
71955;SDS011;59829;50.562;6.258;2022-11-03T00:19:48;1.40;;;0.40;;
71955;SDS011;59829;50.562;6.258;2022-11-03T00:29:49;1.42;;;0.35;;
71955;SDS011;59829;50.562;6.258;2022-11-03T00:39:49;1.80;;;0.30;;
71955;SDS011;59829;50.562;6.258;2022-11-03T00:49:49;1.45;;;0.30;;
71955;SDS011;59829;50.562;6.258;2022-11-03T00:59:50;1.02;;;0.30;;
71955;SDS011;59829;50.562;6.258;2022-11-03T01:09:50;1.98;;;0.30;;
71955;SDS011;59829;50.562;6.258;2022-11-03T01:19:50;1.58;;;0.50;;
71955;SDS011;59829;50.562;6.258;2022-11-03T01:29:51;1.20;;;0.30;;
71955;SDS011;59829;50.562;6.258;2022-11-03T01:39:51;0.60;;;0.20;;
71955;SDS011;59829;50.562;6.258;2022-11-03T01:50:02;1.23;;;0.50;;
71955;SDS011;59829;50.562;6.258;2022-11-03T02:00:09;2.42;;;0.60;;
71955;SDS011;59829;50.562;6.258;2022-11-03T02:10:10;0.95;;;0.50;;
71955;SDS011;59829;50.562;6.258;2022-11-03T02:20:18;0.88;;;0.30;;
71955;SDS011;59829;50.562;6.258;2022-11-03T02:30:21;2.90;;;0.55;;
71955;SDS011;59829;50.562;6.258;2022-11-03T02:40:28;1.63;;;0.50;;
71955;SDS011;59829;50.562;6.258;2022-11-03T02:50:32;1.15;;;0.60;;
71955;SDS011;59829;50.562;6.258;2022-11-03T03:00:53;1.02;;;0.32;;
71955;SDS011;59829;50.562;6.258;2022-11-03T03:10:54;2.47;;;0.70;;
71955;SDS011;59829;50.562;6.258;2022-11-03T03:21:04;1.30;;;0.40;;
71955;SDS011;59829;50.562;6.258;2022-11-03T03:31:11;1.77;;;0.80;;
71955;SDS011;59829;50.562;6.258;2022-11-03T03:51:21;1.83;;;0.50;;
71955;SDS011;59829;50.562;6.258;2022-11-03T04:01:24;2.13;;;0.50;;
71955;SDS011;59829;50.562;6.258;2022-11-03T04:11:25;1.27;;;0.47;;
71955;SDS011;59829;50.562;6.258;2022-11-03T04:21:43;1.83;;;0.60;;
71955;SDS011;59829;50.562;6.258;2022-11-03T04:32:06;1.55;;;0.30;;
71955;SDS011;59829;50.562;6.258;2022-11-03T04:42:17;2.92;;;0.80;;
71955;SDS011;59829;50.562;6.258;2022-11-03T04:52:20;1.15;;;0.40;;
71955;SDS011;59829;50.562;6.258;2022-11-03T05:02:21;2.47;;;0.75;;
71955;SDS011;59829;50.562;6.258;2022-11-03T05:12:21;1.65;;;0.52;;
71955;SDS011;59829;50.562;6.258;2022-11-03T05:22:22;1.63;;;0.60;;
71955;SDS011;59829;50.562;6.258;2022-11-03T05:32:25;1.33;;;0.70;;
71955;SDS011;59829;50.562;6.258;2022-11-03T05:42:41;1.48;;;0.40;;
71955;SDS011;59829;50.562;6.258;2022-11-03T05:52:46;0.90;;;0.40;;
71955;SDS011;59829;50.562;6.258;2022-11-03T06:02:48;0.47;;;0.30;;
71955;SDS011;59829;50.562;6.258;2022-11-03T06:12:48;0.90;;;0.30;;
71955;SDS011;59829;50.562;6.258;2022-11-03T06:22:49;1.60;;;0.40;;
71955;SDS011;59829;50.562;6.258;2022-11-03T06:32:52;0.97;;;0.10;;
71955;SDS011;59829;50.562;6.258;2022-11-03T06:42:54;0.50;;;0.20;;
71955;SDS011;59829;50.562;6.258;2022-11-03T06:52:57;0.33;;;0.20;;
71955;SDS011;59829;50.562;6.258;2022-11-03T07:03:08;0.68;;;0.20;;
71955;SDS011;59829;50.562;6.258;2022-11-03T07:13:13;0.45;;;0.20;;
71955;SDS011;59829;50.562;6.258;2022-11-03T07:23:18;2.05;;;0.60;;
71955;SDS011;59829;50.562;6.258;2022-11-03T07:33:22;1.15;;;0.80;;
71955;SDS011;59829;50.562;6.258;2022-11-03T07:43:32;1.33;;;0.60;;
71955;SDS011;59829;50.562;6.258;2022-11-03T07:53:42;1.30;;;0.50;;
71955;SDS011;59829;50.562;6.258;2022-11-03T08:03:45;0.68;;;0.47;;
71955;SDS011;59829;50.562;6.258;2022-11-03T08:13:46;1.33;;;0.60;;
71955;SDS011;59829;50.562;6.258;2022-11-03T08:23:46;1.02;;;0.57;;
71955;SDS011;59829;50.562;6.258;2022-11-03T08:33:48;2.40;;;0.90;;
71955;SDS011;59829;50.562;6.258;2022-11-03T08:43:48;2.92;;;1.38;;
71955;SDS011;59829;50.562;6.258;2022-11-03T08:53:48;2.35;;;1.10;;
71955;SDS011;59829;50.562;6.258;2022-11-03T09:03:52;2.60;;;1.27;;
71955;SDS011;59829;50.562;6.258;2022-11-03T09:13:53;3.40;;;1.70;;
71955;SDS011;59829;50.562;6.258;2022-11-03T09:23:53;4.35;;;2.00;;
71955;SDS011;59829;50.562;6.258;2022-11-03T09:33:53;3.25;;;1.55;;
71955;SDS011;59829;50.562;6.258;2022-11-03T09:43:55;4.47;;;1.60;;
71955;SDS011;59829;50.562;6.258;2022-11-03T09:53:57;4.55;;;1.80;;
71955;SDS011;59829;50.562;6.258;2022-11-03T10:04:04;5.13;;;2.10;;
71955;SDS011;59829;50.562;6.258;2022-11-03T10:14:04;3.57;;;1.20;;
71955;SDS011;59829;50.562;6.258;2022-11-03T10:24:12;2.55;;;1.33;;
71955;SDS011;59829;50.562;6.258;2022-11-03T10:44:33;2.65;;;0.90;;
71955;SDS011;59829;50.562;6.258;2022-11-03T10:54:33;2.95;;;0.80;;
71955;SDS011;59829;50.562;6.258;2022-11-03T11:04:35;2.70;;;1.10;;
71955;SDS011;59829;50.562;6.258;2022-11-03T11:14:36;2.22;;;0.70;;
71955;SDS011;59829;50.562;6.258;2022-11-03T11:34:49;0.90;;;0.60;;
71955;SDS011;59829;50.562;6.258;2022-11-03T11:44:50;1.70;;;0.40;;
71955;SDS011;59829;50.562;6.258;2022-11-03T11:54:51;0.80;;;0.30;;
71955;SDS011;59829;50.562;6.258;2022-11-03T12:04:53;1.52;;;0.50;;
71955;SDS011;59829;50.562;6.258;2022-11-03T12:15:02;1.48;;;0.60;;
71955;SDS011;59829;50.562;6.258;2022-11-03T12:25:03;2.38;;;0.63;;
71955;SDS011;59829;50.562;6.258;2022-11-03T12:35:10;1.15;;;0.50;;
71955;SDS011;59829;50.562;6.258;2022-11-03T12:45:12;1.05;;;0.30;;
71955;SDS011;59829;50.562;6.258;2022-11-03T12:55:12;1.45;;;0.30;;
71955;SDS011;59829;50.562;6.258;2022-11-03T13:05:13;0.85;;;0.50;;
71955;SDS011;59829;50.562;6.258;2022-11-03T13:15:14;0.63;;;0.30;;
71955;SDS011;59829;50.562;6.258;2022-11-03T13:25:14;0.30;;;0.20;;
71955;SDS011;59829;50.562;6.258;2022-11-03T13:35:15;0.30;;;0.20;;
71955;SDS011;59829;50.562;6.258;2022-11-03T13:45:16;0.47;;;0.20;;
71955;SDS011;59829;50.562;6.258;2022-11-03T13:55:16;1.65;;;0.60;;
71955;SDS011;59829;50.562;6.258;2022-11-03T14:05:17;1.38;;;0.40;;
71955;SDS011;59829;50.562;6.258;2022-11-03T14:15:17;0.68;;;0.40;;
71955;SDS011;59829;50.562;6.258;2022-11-03T14:25:18;0.20;;;0.10;;
71955;SDS011;59829;50.562;6.258;2022-11-03T14:35:19;1.70;;;0.40;;
71955;SDS011;59829;50.562;6.258;2022-11-03T14:45:22;1.40;;;0.40;;
71955;SDS011;59829;50.562;6.258;2022-11-03T14:55:22;0.95;;;0.40;;
71955;SDS011;59829;50.562;6.258;2022-11-03T15:05:22;1.23;;;0.45;;
71955;SDS011;59829;50.562;6.258;2022-11-03T15:15:41;0.80;;;0.50;;
71955;SDS011;59829;50.562;6.258;2022-11-03T15:25:42;0.55;;;0.47;;
71955;SDS011;59829;50.562;6.258;2022-11-03T15:35:42;0.47;;;0.40;;
71955;SDS011;59829;50.562;6.258;2022-11-03T15:45:42;1.73;;;0.63;;
71955;SDS011;59829;50.562;6.258;2022-11-03T15:55:43;1.92;;;0.88;;
71955;SDS011;59829;50.562;6.258;2022-11-03T16:05:43;2.22;;;1.10;;
71955;SDS011;59829;50.562;6.258;2022-11-03T16:15:43;2.05;;;1.02;;
71955;SDS011;59829;50.562;6.258;2022-11-03T16:25:44;1.33;;;0.80;;
71955;SDS011;59829;50.562;6.258;2022-11-03T16:35:44;1.83;;;0.90;;
71955;SDS011;59829;50.562;6.258;2022-11-03T16:45:44;0.60;;;0.40;;
71955;SDS011;59829;50.562;6.258;2022-11-03T16:55:45;0.90;;;0.40;;
71955;SDS011;59829;50.562;6.258;2022-11-03T17:05:47;1.98;;;0.65;;
71955;SDS011;59829;50.562;6.258;2022-11-03T17:15:47;2.03;;;0.95;;
71955;SDS011;59829;50.562;6.258;2022-11-03T17:25:47;0.70;;;0.63;;
71955;SDS011;59829;50.562;6.258;2022-11-03T17:35:48;1.90;;;0.60;;
71955;SDS011;59829;50.562;6.258;2022-11-03T17:45:48;0.68;;;0.40;;
71955;SDS011;59829;50.562;6.258;2022-11-03T17:55:49;0.52;;;0.30;;
71955;SDS011;59829;50.562;6.258;2022-11-03T18:05:51;0.40;;;0.30;;
71955;SDS011;59829;50.562;6.258;2022-11-03T18:15:53;1.05;;;0.32;;
71955;SDS011;59829;50.562;6.258;2022-11-03T18:26:02;1.48;;;0.40;;
71955;SDS011;59829;50.562;6.258;2022-11-03T18:36:12;0.90;;;0.43;;
71955;SDS011;59829;50.562;6.258;2022-11-03T18:46:14;0.45;;;0.22;;
71955;SDS011;59829;50.562;6.258;2022-11-03T18:56:14;0.88;;;0.30;;
71955;SDS011;59829;50.562;6.258;2022-11-03T19:16:22;0.50;;;0.30;;
71955;SDS011;59829;50.562;6.258;2022-11-03T19:26:24;1.02;;;0.40;;
71955;SDS011;59829;50.562;6.258;2022-11-03T19:36:28;1.02;;;0.35;;
71955;SDS011;59829;50.562;6.258;2022-11-03T19:46:30;0.60;;;0.30;;
71955;SDS011;59829;50.562;6.258;2022-11-03T19:56:30;1.17;;;0.50;;
71955;SDS011;59829;50.562;6.258;2022-11-03T20:06:31;0.40;;;0.30;;
71955;SDS011;59829;50.562;6.258;2022-11-03T20:16:35;0.88;;;0.52;;
71955;SDS011;59829;50.562;6.258;2022-11-03T20:26:35;0.50;;;0.40;;
71955;SDS011;59829;50.562;6.258;2022-11-03T20:36:36;0.73;;;0.40;;
71955;SDS011;59829;50.562;6.258;2022-11-03T20:46:36;1.95;;;0.90;;
71955;SDS011;59829;50.562;6.258;2022-11-03T20:56:36;1.00;;;0.65;;
71955;SDS011;59829;50.562;6.258;2022-11-03T21:06:37;0.70;;;0.47;;
71955;SDS011;59829;50.562;6.258;2022-11-03T21:16:37;1.20;;;0.60;;
71955;SDS011;59829;50.562;6.258;2022-11-03T21:26:56;0.20;;;0.20;;
71955;SDS011;59829;50.562;6.258;2022-11-03T21:36:56;0.52;;;0.30;;
71955;SDS011;59829;50.562;6.258;2022-11-03T21:46:56;0.30;;;0.30;;
71955;SDS011;59829;50.562;6.258;2022-11-03T21:56:56;3.22;;;0.60;;
71955;SDS011;59829;50.562;6.258;2022-11-03T22:06:57;1.15;;;0.77;;
71955;SDS011;59829;50.562;6.258;2022-11-03T22:16:58;1.02;;;0.40;;
71955;SDS011;59829;50.562;6.258;2022-11-03T22:26:58;1.15;;;0.50;;
71955;SDS011;59829;50.562;6.258;2022-11-03T22:36:59;3.25;;;0.80;;
71955;SDS011;59829;50.562;6.258;2022-11-03T22:46:59;1.02;;;0.63;;
71955;SDS011;59829;50.562;6.258;2022-11-03T22:57:00;1.20;;;0.80;;
71955;SDS011;59829;50.562;6.258;2022-11-03T23:07:00;1.27;;;0.90;;
71955;SDS011;59829;50.562;6.258;2022-11-03T23:17:00;1.20;;;0.90;;
71955;SDS011;59829;50.562;6.258;2022-11-03T23:27:00;2.05;;;1.02;;
71955;SDS011;59829;50.562;6.258;2022-11-03T23:37:02;0.50;;;0.40;;
71955;SDS011;59829;50.562;6.258;2022-11-03T23:47:02;0.82;;;0.20;;
71955;SDS011;59829;50.562;6.258;2022-11-03T23:57:21;1.77;;;0.35;;
